Boulevard, New York
Current Conditions -  °F | °C
As of 11:51 AM on Thursday 27 Nov 2014 (Local Time) from KLGA Reporting Station
Unknown Precip Unknown Precip  
Wind Chill: -2°   Ceiling: 700
Heat Index:   Visibility: 9mi
Dew Point:   Wind: 9mph
Humidity: 89%   Direction: 320°NW
Pressure: 29.99"   Gusts: NA
Location:  40.8106°N, 73.8845°W
Report Text: KLGA 271651Z 32008KT 9SM UP BKN007 BKN020 OVC030 02/01 A2999 RMK AO2 RAB41E51UPB51SNE41 SLP155 P0001 T00220006
Loading
Personal Weather Stations






























Interactive Weather Map New forecast layout! Learn more

10-Day Weather Forecast

Advertisements
Track Severe Weather on mobile